메인 페이지
METAR-TAF:

METAR-TAF

공항 :

산후안, 푸에르토리코, 미국

위도: 18-27N, 경도: 066-00W, 고도: 3m

현재 날씨관측

예보는 36분 전, 06:56시(UTC)에 발표되었습니다.
남동3kt
온도 24°C
습도 89%
기압 1017 hPa
시정: 16.1km
고도 2800ft 상공 구름 조금

METAR: TJSJ 210656Z 13003KT 10SM FEW028 24/22 A3004 RMK AO2 RAB41E52 SLP170 P0000 T02440217

시각: 03:32 (07:32 UTC)

예보

예보는 2 시간 10분 전, 05:22시(UTC)에 발표되었습니다.
예보 대상 시간: 21일 06시부터 22일 06시까지 (UTC)
여러 방향의 바람 6kt
시정: 10km
고도 2500ft 상공 구름 보통
시계 내 소나기
21일 1300시부터 (UTC)
15kt, 순간 최대 풍속 25kt
시정: 10km
고도 3000ft 상공 구름 보통
시계 내 소나기
21일 2200시부터 (UTC)
8kt
시정: 10km
고도 3000ft 상공 구름 보통

TAF: TJSJ 210522Z 2106/2206 VRB06KT P6SM VCSH SCT025 FM211300 08015G25KT P6SM VCSH SCT030 FM212200 10008KT P6SM SCT030

4,000개 이상의 공항 관측 자료 및 예보 (METAR 및 TAF 보고).

지도상에서 검색 가능한 기상관측소가 노란 점과 빨간 점으로 표시되어 있습니다.

기상관측소 명을 보려면 표시 위로 마우스를 이동하세요.

날씨 관측과 예보를 보려면 클릭하세요.

지도 변경 : 확대하려면 엑스 표시가 있는 녹색 버튼, 축소하려면 빼기 표시가 있는 녹색 버튼, 다음 페이지의 지도를 보려면 녹색 화살표를 클릭하세요.


METAR-TAF: